createdAt,value
2023-05-22T00:03:17.747Z,15.00
2023-05-22T00:08:21.904Z,18.45
2023-05-22T00:13:25.911Z,18.77
2023-05-22T00:18:29.976Z,15.40
2023-05-22T00:23:34.010Z,10.95
2023-05-22T00:28:38.036Z,12.75
2023-05-22T00:33:42.127Z,12.00
2023-05-22T00:38:46.867Z,12.73
2023-05-22T00:43:52.302Z,11.68
2023-05-22T00:48:56.431Z,10.98
2023-05-22T00:54:00.842Z,10.80
2023-05-22T00:59:05.559Z,9.70
2023-05-22T01:04:13.877Z,9.13
2023-05-22T01:09:18.074Z,10.73
2023-05-22T01:14:56.967Z,10.75
2023-05-22T01:20:07.950Z,10.77
2023-05-22T01:25:33.906Z,8.63
2023-05-22T01:31:00.429Z,11.00
2023-05-22T01:36:08.862Z,14.95
2023-05-22T01:41:14.547Z,12.05
2023-05-22T01:46:18.598Z,21.02
2023-05-22T01:51:34.893Z,11.27
2023-05-22T01:56:58.030Z,15.57
2023-05-22T02:02:08.345Z,12.50
2023-05-22T02:07:14.966Z,14.30
2023-05-22T02:12:22.424Z,19.98
2023-05-22T02:17:26.722Z,15.65
2023-05-22T02:22:30.900Z,15.98
2023-05-22T02:27:34.972Z,14.43
2023-05-22T02:32:40.697Z,17.60
2023-05-22T02:37:45.193Z,15.63
2023-05-22T02:42:50.399Z,18.63
2023-05-22T02:47:55.230Z,18.55
2023-05-22T02:52:59.261Z,14.43
2023-05-22T02:58:04.284Z,21.83
2023-05-22T03:03:08.428Z,18.15
2023-05-22T03:08:12.920Z,22.50
2023-05-22T03:13:18.086Z,21.55
2023-05-22T03:18:23.204Z,23.95
2023-05-22T03:23:28.318Z,20.23
2023-05-22T03:28:32.558Z,17.23
2023-05-22T03:33:37.049Z,16.83
2023-05-22T03:38:42.164Z,22.33
2023-05-22T03:43:47.415Z,13.57
2023-05-22T03:49:39.035Z,14.23
2023-05-22T03:54:43.828Z,17.20
2023-05-22T03:59:47.838Z,11.20
2023-05-22T04:04:53.339Z,13.65
2023-05-22T04:09:57.385Z,10.27
2023-05-22T04:15:01.630Z,11.10
2023-05-22T04:20:09.419Z,14.48
2023-05-22T04:25:13.703Z,13.68
2023-05-22T04:30:19.222Z,11.65
2023-05-22T04:41:46.851Z,11.00
2023-05-22T04:46:52.011Z,9.98
2023-05-22T04:51:58.277Z,10.63
2023-05-22T04:57:05.371Z,10.80
2023-05-22T05:02:09.658Z,12.65
2023-05-22T05:07:18.356Z,10.55
2023-05-22T05:12:22.638Z,12.32
2023-05-22T05:17:27.656Z,12.65
2023-05-22T05:22:31.808Z,13.90
2023-05-22T05:27:36.446Z,12.63
2023-05-22T05:32:40.814Z,14.95
2023-05-22T05:38:01.475Z,11.75
2023-05-22T05:50:25.043Z,15.30
2023-05-22T05:55:32.244Z,17.45
2023-05-22T06:00:37.778Z,16.83
2023-05-22T06:05:42.216Z,16.50
2023-05-22T06:10:55.002Z,18.85
2023-05-22T06:16:17.396Z,16.90
2023-05-22T06:21:25.346Z,17.50
2023-05-22T06:26:29.559Z,16.42
2023-05-22T06:31:36.467Z,15.10
2023-05-22T06:36:42.993Z,14.75
2023-05-22T06:41:47.217Z,14.18
2023-05-22T06:46:51.493Z,11.50
2023-05-22T06:51:59.801Z,11.57
2023-05-22T06:57:04.636Z,11.90
2023-05-22T07:02:09.008Z,13.07
2023-05-22T07:07:26.672Z,13.48
2023-05-22T07:12:31.118Z,12.13
2023-05-22T07:17:35.711Z,11.48
2023-05-22T07:22:39.850Z,9.77
2023-05-22T07:27:44.036Z,13.02
2023-05-22T07:32:49.901Z,10.15
2023-05-22T07:37:56.033Z,8.60
2023-05-22T07:43:00.260Z,8.30
2023-05-22T07:48:05.460Z,9.05
2023-05-22T07:53:13.097Z,9.85
2023-05-22T07:58:20.194Z,9.98
2023-05-22T08:03:26.595Z,9.00
2023-05-22T08:08:31.779Z,16.33
2023-05-22T08:13:38.524Z,14.65
2023-05-22T08:18:42.616Z,8.60
2023-05-22T08:23:46.580Z,10.45
2023-05-22T08:28:50.744Z,11.55
2023-05-22T08:33:54.732Z,14.48
2023-05-22T08:38:58.773Z,12.40
2023-05-22T08:44:21.717Z,10.18
2023-05-22T08:50:22.200Z,10.18
2023-05-22T08:55:27.088Z,10.38
2023-05-22T09:00:32.492Z,9.25
2023-05-22T09:05:36.910Z,11.48
2023-05-22T09:10:41.311Z,8.57
2023-05-22T09:15:45.722Z,9.13
2023-05-22T09:20:49.615Z,11.98
2023-05-22T09:26:00.011Z,8.27
2023-05-22T09:31:05.432Z,7.72
2023-05-22T09:36:10.918Z,9.07
2023-05-22T09:41:14.956Z,7.53
2023-05-22T09:46:18.996Z,10.38
2023-05-22T09:51:27.392Z,8.63
2023-05-22T09:56:39.557Z,6.18
2023-05-22T10:01:46.451Z,8.88
2023-05-22T10:06:55.512Z,12.15
2023-05-22T10:12:05.242Z,7.93
2023-05-22T10:17:12.357Z,7.05
2023-05-22T10:22:21.564Z,7.03
2023-05-22T10:27:25.543Z,8.87
2023-05-22T10:32:55.575Z,6.65
2023-05-22T10:38:27.107Z,8.63
2023-05-22T10:43:34.865Z,9.43
2023-05-22T10:48:40.859Z,6.80
2023-05-22T10:53:46.280Z,5.30
2023-05-22T10:59:06.054Z,5.57
2023-05-22T11:04:17.095Z,7.63
2023-05-22T11:09:31.034Z,7.65
2023-05-22T11:14:38.242Z,5.30
2023-05-22T11:19:42.965Z,5.07
2023-05-22T11:24:47.500Z,6.72
2023-05-22T11:29:52.624Z,6.47
2023-05-22T11:34:58.418Z,4.97
2023-05-22T11:40:05.562Z,7.40
2023-05-22T11:45:11.420Z,6.30
2023-05-22T11:50:22.581Z,5.53
2023-05-22T11:55:30.739Z,10.48
2023-05-22T12:00:34.841Z,8.48
2023-05-22T12:05:39.108Z,6.30
2023-05-22T12:10:49.708Z,12.07
2023-05-22T12:16:03.339Z,7.45
2023-05-22T12:21:07.687Z,7.13
2023-05-22T12:26:12.873Z,5.70
2023-05-22T12:31:23.634Z,7.82
2023-05-22T12:36:40.444Z,4.55
2023-05-22T12:41:48.370Z,5.13
2023-05-22T12:46:53.715Z,6.32
2023-05-22T12:51:57.645Z,5.22
2023-05-22T12:57:01.801Z,6.82
2023-05-22T13:02:06.811Z,7.72
2023-05-22T13:07:10.932Z,5.75
2023-05-22T13:12:15.032Z,6.10
2023-05-22T13:17:18.898Z,7.75
2023-05-22T13:22:23.904Z,9.80
2023-05-22T13:27:29.179Z,7.10
2023-05-22T13:32:35.930Z,7.20
2023-05-22T13:37:39.960Z,7.78
2023-05-22T13:42:44.671Z,7.60
2023-05-22T13:47:48.593Z,7.05
2023-05-22T13:52:53.215Z,5.88
2023-05-22T13:57:57.507Z,10.00
2023-05-22T14:03:01.701Z,10.95
2023-05-22T14:08:06.157Z,4.38
2023-05-22T14:13:10.156Z,4.68
2023-05-22T14:18:17.140Z,4.72
2023-05-22T14:23:21.334Z,3.90
2023-05-22T14:28:25.545Z,5.15
2023-05-22T14:33:31.757Z,4.40
2023-05-22T14:38:36.078Z,4.45
2023-05-22T14:43:40.196Z,4.95
2023-05-22T14:48:44.406Z,6.93
2023-05-22T14:53:49.006Z,10.25
2023-05-22T14:58:53.576Z,8.18
2023-05-22T15:03:57.615Z,10.05
2023-05-22T15:09:01.926Z,9.85
2023-05-22T15:14:29.844Z,16.55
2023-05-22T15:19:34.111Z,9.35
2023-05-22T15:24:38.110Z,8.88
2023-05-22T15:29:42.853Z,7.70
2023-05-22T15:34:46.840Z,12.43
2023-05-22T15:39:51.488Z,7.80
2023-05-22T15:44:56.132Z,12.07
2023-05-22T15:50:00.807Z,12.85
2023-05-22T15:55:06.608Z,9.40
2023-05-22T16:00:11.052Z,8.98
2023-05-22T16:05:15.024Z,6.72
2023-05-22T16:10:22.223Z,6.43
2023-05-22T16:15:26.402Z,7.05
2023-05-22T16:20:30.779Z,9.00
2023-05-22T16:25:35.573Z,7.03
2023-05-22T16:30:40.855Z,5.53
2023-05-22T16:35:47.862Z,7.82
2023-05-22T16:40:51.994Z,4.63
2023-05-22T16:45:56.042Z,5.22
2023-05-22T16:50:59.969Z,4.18
2023-05-22T16:56:06.690Z,5.88
2023-05-22T17:01:10.803Z,8.88
2023-05-22T17:06:14.916Z,8.35
2023-05-22T17:11:18.906Z,4.57
2023-05-22T17:16:23.193Z,5.97
2023-05-22T17:21:28.197Z,5.25
2023-05-22T17:26:34.198Z,5.30
2023-05-22T17:31:39.456Z,5.45
2023-05-22T17:36:44.923Z,9.20
2023-05-22T17:41:49.886Z,6.70
2023-05-22T17:46:56.416Z,4.55
2023-05-22T17:52:00.244Z,8.85
2023-05-22T17:57:04.796Z,4.97
2023-05-22T18:02:10.137Z,6.82
2023-05-22T18:07:14.213Z,3.42
2023-05-22T18:12:31.075Z,3.05
2023-05-22T18:17:36.503Z,3.78
2023-05-22T18:22:41.450Z,3.40
2023-05-22T18:27:45.518Z,3.75
2023-05-22T18:32:49.359Z,6.05
2023-05-22T18:37:53.619Z,5.72
2023-05-22T18:42:57.475Z,5.22
2023-05-22T18:48:01.679Z,3.65
2023-05-22T18:53:07.240Z,4.13
2023-05-22T18:58:12.333Z,4.85
2023-05-22T19:03:16.349Z,4.07
2023-05-22T19:08:20.893Z,6.40
2023-05-22T19:13:24.985Z,4.07
2023-05-22T19:18:29.032Z,5.30
2023-05-22T19:23:34.099Z,7.00
2023-05-22T19:28:37.963Z,5.22
2023-05-22T19:33:41.884Z,5.47
2023-05-22T19:38:45.782Z,5.07
2023-05-22T19:43:49.974Z,4.78
2023-05-22T19:48:54.769Z,5.47
2023-05-22T19:53:58.685Z,7.07
2023-05-22T19:59:02.799Z,6.47
2023-05-22T20:04:07.102Z,7.13
2023-05-22T20:09:12.858Z,7.05
2023-05-22T20:14:17.111Z,7.03
2023-05-22T20:19:22.542Z,8.18
2023-05-22T20:24:26.496Z,6.32
2023-05-22T20:29:30.290Z,5.72
2023-05-22T20:34:34.550Z,5.65
2023-05-22T20:39:38.473Z,7.47
2023-05-22T20:44:42.510Z,7.00
2023-05-22T20:49:46.536Z,10.40
2023-05-22T20:54:50.353Z,12.25
2023-05-22T20:59:55.260Z,8.63
2023-05-22T21:04:59.096Z,11.98
2023-05-22T21:10:03.344Z,10.95
2023-05-22T21:15:10.176Z,9.13
2023-05-22T21:20:14.269Z,10.90
2023-05-22T21:25:18.147Z,8.35
2023-05-22T21:30:22.422Z,7.57
2023-05-22T21:35:26.513Z,8.07
2023-05-22T21:40:30.350Z,9.10
2023-05-22T21:45:34.356Z,9.45
2023-05-22T21:50:38.556Z,7.85
2023-05-22T21:55:42.763Z,15.40
2023-05-22T22:00:46.958Z,10.43
2023-05-22T22:05:50.878Z,9.65
2023-05-22T22:10:55.273Z,10.15
2023-05-22T22:16:00.371Z,9.10
2023-05-22T22:21:05.365Z,11.38
2023-05-22T22:26:09.190Z,8.75
2023-05-22T22:31:13.248Z,7.47
2023-05-22T22:36:17.752Z,10.25
2023-05-22T22:41:21.890Z,8.45
2023-05-22T22:46:26.237Z,8.65
2023-05-22T22:51:32.789Z,7.07
2023-05-22T22:56:36.952Z,6.53
2023-05-22T23:01:40.882Z,6.53
2023-05-22T23:06:45.076Z,7.57
2023-05-22T23:11:48.856Z,6.57
2023-05-22T23:16:53.098Z,7.32
2023-05-22T23:21:56.966Z,11.10
2023-05-22T23:27:01.644Z,7.50
2023-05-22T23:32:05.844Z,8.48
2023-05-22T23:37:10.066Z,9.88
2023-05-22T23:42:14.069Z,10.13
2023-05-22T23:47:19.585Z,8.30
2023-05-22T23:52:24.355Z,6.50
2023-05-22T23:57:28.435Z,7.63
